Donington — D5NC3 — position and weather

sailwx.info

Track history (hours):
 
Tides and Currents Weather Stations Pressure Air Temp Water Temp Dewpoint Dewpoint Depression Visibility Wind Speed Wind Dir Waves Ship Positions

Donington

Last reported at 2018-Apr-19 19:52 UTC. Time now 2018-Apr-24 16:30 UTC.
Position N 31°26' E 032°17'.

Length 199 m; draft 9.3 m.

Type: Cargo ship. MMSI: 636017870.

Date/timePositionNaut miles runAvg speedWind from/ knotsBaromVisibWave heightAir tempDewpointWater temp
2018-Apr-19 19:52N 31°26' E 032°17'15 9.6
2018-Apr-19 18:17N 31°38' E 032°06'910.0
2018-Apr-19 17:25N 31°44' E 031°59'810.5
2018-Apr-19 16:42N 31°49' E 031°53'210.2
2018-Apr-19 16:28N 31°51' E 031°51'510.3
2018-Apr-19 15:59N 31°55' E 031°47'510.3
2018-Apr-19 15:30N 31°58' E 031°43'6410.3
2018-Apr-19 09:18N 32°45' E 030°51'410.7
2018-Apr-19 08:55N 32°48' E 030°48'510.6
2018-Apr-19 08:29N 32°51' E 030°43'910.8
2018-Apr-19 07:40N 32°56' E 030°35'12012.2
2018-Apr-18 21:49N 34°26' E 029°00'23412.3
2018-Apr-18 02:51N 37°26' E 025°55'513.3
2018-Apr-18 02:30N 37°29' E 025°52'712.8
2018-Apr-18 01:58N 37°36' E 025°50'  
2018-Apr-15 12:38N 40°01' E 026°09'2 6.2
2018-Apr-15 12:21N 39°60' E 026°07'5 8.7
2018-Apr-15 11:50N 39°58' E 026°01'9 9.3
2018-Apr-15 10:55N 39°52' E 025°54'3 8.1
2018-Apr-15 10:30N 39°49' E 025°52'5 8.6
2018-Apr-15 09:57N 39°44' E 025°52'9 9.1
2018-Apr-15 08:59N 39°37' E 025°57'2915.3
2018-Apr-15 07:07N 39°12' E 025°38'316.3
2018-Apr-15 06:57N 39°10' E 025°36'816.7
2018-Apr-15 06:27N 39°03' E 025°30'3315.4
2018-Apr-15 04:18N 38°37' E 025°04'615.0
2018-Apr-15 03:56N 38°32' E 025°01'7514.9
2018-Apr-14 22:54N 37°30' E 024°08'2715.2
2018-Apr-14 21:10N 37°06' E 023°54'215.2
2018-Apr-14 21:00N 37°04' E 023°53'40613.9
2018-Apr-13 15:47N 36°19' E 015°29'517.2
2018-Apr-13 15:30N 36°20' E 015°23'714.1
2018-Apr-13 14:59N 36°21' E 015°14'816.2
2018-Apr-13 14:29N 36°22' E 015°05'1515.2
2018-Apr-13 13:29N 36°25' E 014°46'715.0
2018-Apr-13 13:00N 36°27' E 014°37'1218.9
2018-Apr-13 12:22N 36°33' E 014°24'1012.1
2018-Apr-13 11:30N 36°38' E 014°13'917.3
2018-Apr-13 10:58N 36°42' E 014°03'816.9
2018-Apr-13 10:28N 36°47' E 013°53'816.8
2018-Apr-13 09:58N 36°51' E 013°44'51915.2
2018-Apr-11 23:49N 38°59' E 003°07'514.2
2018-Apr-11 23:30N 38°60' E 003°02'1014.1
2018-Apr-11 22:47N 39°01' E 002°49'414.0
2018-Apr-11 22:30N 39°02' E 002°44'1214.2
2018-Apr-11 21:38N 39°05' E 002°29'214.7
2018-Apr-11 21:30N 39°06' E 002°26'12315.5
2018-Apr-11 13:34N 39°25' W 000°11'115.4
2018-Apr-11 13:30N 39°25' W 000°12'510.7
2018-Apr-11 13:00N 39°26' W 000°19'0 0.6
2018-Apr-11 12:30N 39°27' W 000°18'0 0.0
2018-Apr-11 12:00N 39°27' W 000°18'0 0.0
2018-Apr-11 11:30N 39°27' W 000°18'0 0.0
2018-Apr-11 11:00N 39°27' W 000°18'0 0.0
2018-Apr-11 10:30N 39°27' W 000°18'0 0.0
2018-Apr-11 10:00N 39°27' W 000°18'0 0.0
2018-Apr-11 09:30N 39°27' W 000°18'0 0.0
2018-Apr-11 09:00N 39°27' W 000°18'0 0.0
2018-Apr-11 08:30N 39°27' W 000°18'0 0.0
2018-Apr-11 07:57N 39°27' W 000°18'0 0.0
2018-Apr-11 07:30N 39°27' W 000°18'0 0.0
2018-Apr-11 07:00N 39°27' W 000°18'0 0.0
2018-Apr-11 06:30N 39°27' W 000°18'0 0.0
2018-Apr-11 06:00N 39°27' W 000°18'0 0.0
2018-Apr-11 05:30N 39°27' W 000°18'0 0.0
2018-Apr-11 05:00N 39°27' W 000°18'0 0.0
2018-Apr-11 04:30N 39°27' W 000°18'3 5.6
2018-Apr-11 04:00N 39°25' W 000°15'3 5.1
2018-Apr-11 03:30N 39°24' W 000°12'89 8.2
2018-Apr-10 16:39N 37°54' W 000°13'312.4
2018-Apr-10 16:24N 37°52' W 000°15'812.4
2018-Apr-10 15:46N 37°45' W 000°20'312.6
2018-Apr-10 15:30N 37°42' W 000°23'612.5
2018-Apr-10 15:00N 37°37' W 000°27'612.5
2018-Apr-10 14:30N 37°32' W 000°32'712.5
2018-Apr-10 13:58N 37°27' W 000°37'613.1
2018-Apr-10 13:30N 37°23' W 000°42'713.2
2018-Apr-10 13:00N 37°18' W 000°48'713.1
2018-Apr-10 12:30N 37°13' W 000°53'  
Track history (hours):
 
Tides and Currents Weather Stations Pressure Air Temp Water Temp Dewpoint Dewpoint Depression Visibility Wind Speed Wind Dir Waves Ship Positions

Donington

Last reported at 2018-Apr-19 19:52 UTC. Time now 2018-Apr-24 16:30 UTC.
Position N 31°26' E 032°17'.

Length 199 m; draft 9.3 m.

Type: Cargo ship. MMSI: 636017870.

Date/timePositionNaut miles runAvg speedWind from/ knotsBaromVisibWave heightAir tempDewpointWater temp
2018-Apr-19 19:52N 31°26' E 032°17'15 9.6
2018-Apr-19 18:17N 31°38' E 032°06'910.0
2018-Apr-19 17:25N 31°44' E 031°59'810.5
2018-Apr-19 16:42N 31°49' E 031°53'210.2
2018-Apr-19 16:28N 31°51' E 031°51'510.3
2018-Apr-19 15:59N 31°55' E 031°47'510.3
2018-Apr-19 15:30N 31°58' E 031°43'6410.3
2018-Apr-19 09:18N 32°45' E 030°51'410.7
2018-Apr-19 08:55N 32°48' E 030°48'510.6
2018-Apr-19 08:29N 32°51' E 030°43'910.8
2018-Apr-19 07:40N 32°56' E 030°35'12012.2
2018-Apr-18 21:49N 34°26' E 029°00'23412.3
2018-Apr-18 02:51N 37°26' E 025°55'513.3
2018-Apr-18 02:30N 37°29' E 025°52'712.8
2018-Apr-18 01:58N 37°36' E 025°50'  
2018-Apr-15 12:38N 40°01' E 026°09'2 6.2
2018-Apr-15 12:21N 39°60' E 026°07'5 8.7
2018-Apr-15 11:50N 39°58' E 026°01'9 9.3
2018-Apr-15 10:55N 39°52' E 025°54'3 8.1
2018-Apr-15 10:30N 39°49' E 025°52'5 8.6
2018-Apr-15 09:57N 39°44' E 025°52'9 9.1
2018-Apr-15 08:59N 39°37' E 025°57'2915.3
2018-Apr-15 07:07N 39°12' E 025°38'316.3
2018-Apr-15 06:57N 39°10' E 025°36'816.7
2018-Apr-15 06:27N 39°03' E 025°30'3315.4
2018-Apr-15 04:18N 38°37' E 025°04'615.0
2018-Apr-15 03:56N 38°32' E 025°01'7514.9
2018-Apr-14 22:54N 37°30' E 024°08'2715.2
2018-Apr-14 21:10N 37°06' E 023°54'215.2
2018-Apr-14 21:00N 37°04' E 023°53'40613.9
2018-Apr-13 15:47N 36°19' E 015°29'517.2
2018-Apr-13 15:30N 36°20' E 015°23'714.1
2018-Apr-13 14:59N 36°21' E 015°14'816.2
2018-Apr-13 14:29N 36°22' E 015°05'1515.2
2018-Apr-13 13:29N 36°25' E 014°46'715.0
2018-Apr-13 13:00N 36°27' E 014°37'1218.9
2018-Apr-13 12:22N 36°33' E 014°24'1012.1
2018-Apr-13 11:30N 36°38' E 014°13'917.3
2018-Apr-13 10:58N 36°42' E 014°03'816.9
2018-Apr-13 10:28N 36°47' E 013°53'816.8
2018-Apr-13 09:58N 36°51' E 013°44'51915.2
2018-Apr-11 23:49N 38°59' E 003°07'514.2
2018-Apr-11 23:30N 38°60' E 003°02'1014.1
2018-Apr-11 22:47N 39°01' E 002°49'414.0
2018-Apr-11 22:30N 39°02' E 002°44'1214.2
2018-Apr-11 21:38N 39°05' E 002°29'214.7
2018-Apr-11 21:30N 39°06' E 002°26'12315.5
2018-Apr-11 13:34N 39°25' W 000°11'115.4
2018-Apr-11 13:30N 39°25' W 000°12'510.7
2018-Apr-11 13:00N 39°26' W 000°19'0 0.6
2018-Apr-11 12:30N 39°27' W 000°18'0 0.0
2018-Apr-11 12:00N 39°27' W 000°18'0 0.0
2018-Apr-11 11:30N 39°27' W 000°18'0 0.0
2018-Apr-11 11:00N 39°27' W 000°18'0 0.0
2018-Apr-11 10:30N 39°27' W 000°18'0 0.0
2018-Apr-11 10:00N 39°27' W 000°18'0 0.0
2018-Apr-11 09:30N 39°27' W 000°18'0 0.0
2018-Apr-11 09:00N 39°27' W 000°18'0 0.0
2018-Apr-11 08:30N 39°27' W 000°18'0 0.0
2018-Apr-11 07:57N 39°27' W 000°18'0 0.0
2018-Apr-11 07:30N 39°27' W 000°18'0 0.0
2018-Apr-11 07:00N 39°27' W 000°18'0 0.0
2018-Apr-11 06:30N 39°27' W 000°18'0 0.0
2018-Apr-11 06:00N 39°27' W 000°18'0 0.0
2018-Apr-11 05:30N 39°27' W 000°18'0 0.0
2018-Apr-11 05:00N 39°27' W 000°18'0 0.0
2018-Apr-11 04:30N 39°27' W 000°18'3 5.6
2018-Apr-11 04:00N 39°25' W 000°15'3 5.1
2018-Apr-11 03:30N 39°24' W 000°12'89 8.2
2018-Apr-10 16:39N 37°54' W 000°13'312.4
2018-Apr-10 16:24N 37°52' W 000°15'812.4
2018-Apr-10 15:46N 37°45' W 000°20'312.6
2018-Apr-10 15:30N 37°42' W 000°23'612.5
2018-Apr-10 15:00N 37°37' W 000°27'612.5
2018-Apr-10 14:30N 37°32' W 000°32'712.5
2018-Apr-10 13:58N 37°27' W 000°37'613.1
2018-Apr-10 13:30N 37°23' W 000°42'713.2
2018-Apr-10 13:00N 37°18' W 000°48'713.1
2018-Apr-10 12:30N 37°13' W 000°53'  

Dump ship's entire track history